Purki — 9HA2386 — position and weather

sailwx.info

Track history (hours):
 
Tides and Currents Weather Stations Pressure Air Temp Water Temp Dewpoint Dewpoint Depression Visibility Wind Speed Wind Dir Waves Ship Positions

Purki

Last reported at 2017-Jan-09 19:19 UTC. Time now 2017-Jan-22 01:34 UTC.
Position N 36°50' E 013°25'.
Warning: this ship's position is 12 days out of date.

Length 146 m; draft 8.5 m.

Type: Cargo ship. MMSI: 248495000.

Date/timePositionNaut miles runAvg speedWind from/ knotsBaromVisibWave heightAir tempDewpointWater temp
2017-Jan-09 19:19N 36°50' E 013°25'1012.5
2017-Jan-09 18:32N 36°48' E 013°37'1312.9
2017-Jan-09 17:33N 36°46' E 013°52'1312.9
2017-Jan-09 16:33N 36°43' E 014°08'1313.1
2017-Jan-09 15:33N 36°41' E 014°24'1312.6
2017-Jan-09 14:33N 36°39' E 014°40'1412.9
2017-Jan-09 13:30N 36°37' E 014°57'  
2017-Jan-06 22:16N 37°32' E 024°04'1313.7
2017-Jan-06 21:19N 37°43' E 024°13'1013.3
2017-Jan-06 20:33N 37°49' E 024°23'  
Track history (hours):
 
Tides and Currents Weather Stations Pressure Air Temp Water Temp Dewpoint Dewpoint Depression Visibility Wind Speed Wind Dir Waves Ship Positions

Purki

Last reported at 2017-Jan-09 19:19 UTC. Time now 2017-Jan-22 01:34 UTC.
Position N 36°50' E 013°25'.
Warning: this ship's position is 12 days out of date.

Length 146 m; draft 8.5 m.

Type: Cargo ship. MMSI: 248495000.

Date/timePositionNaut miles runAvg speedWind from/ knotsBaromVisibWave heightAir tempDewpointWater temp
2017-Jan-09 19:19N 36°50' E 013°25'1012.5
2017-Jan-09 18:32N 36°48' E 013°37'1312.9
2017-Jan-09 17:33N 36°46' E 013°52'1312.9
2017-Jan-09 16:33N 36°43' E 014°08'1313.1
2017-Jan-09 15:33N 36°41' E 014°24'1312.6
2017-Jan-09 14:33N 36°39' E 014°40'1412.9
2017-Jan-09 13:30N 36°37' E 014°57'  
2017-Jan-06 22:16N 37°32' E 024°04'1313.7
2017-Jan-06 21:19N 37°43' E 024°13'1013.3
2017-Jan-06 20:33N 37°49' E 024°23'  

Dump ship's entire track history